sensor_id;sensor_type;location;lat;lon;timestamp;P1;durP1;ratioP1;P2;durP2;ratioP2
9240;SDS011;53485;49.326;9.738;2023-04-07T00:01:29;5.50;;;4.13;;
9240;SDS011;53485;49.326;9.738;2023-04-07T00:03:55;5.57;;;3.97;;
9240;SDS011;53485;49.326;9.738;2023-04-07T00:06:22;6.00;;;4.23;;
9240;SDS011;53485;49.326;9.738;2023-04-07T00:08:49;4.37;;;3.97;;
9240;SDS011;53485;49.326;9.738;2023-04-07T00:11:15;7.87;;;4.70;;
9240;SDS011;53485;49.326;9.738;2023-04-07T00:13:42;5.97;;;4.27;;
9240;SDS011;53485;49.326;9.738;2023-04-07T00:16:09;5.33;;;4.67;;
9240;SDS011;53485;49.326;9.738;2023-04-07T00:18:35;7.40;;;5.70;;
9240;SDS011;53485;49.326;9.738;2023-04-07T00:21:02;6.33;;;5.67;;
9240;SDS011;53485;49.326;9.738;2023-04-07T00:23:28;8.33;;;5.90;;
9240;SDS011;53485;49.326;9.738;2023-04-07T00:25:55;8.67;;;6.10;;
9240;SDS011;53485;49.326;9.738;2023-04-07T00:28:21;7.87;;;5.33;;
9240;SDS011;53485;49.326;9.738;2023-04-07T00:30:48;6.53;;;4.77;;
9240;SDS011;53485;49.326;9.738;2023-04-07T00:33:14;5.83;;;4.90;;
9240;SDS011;53485;49.326;9.738;2023-04-07T00:35:41;7.50;;;5.00;;
9240;SDS011;53485;49.326;9.738;2023-04-07T00:38:08;8.03;;;5.20;;
9240;SDS011;53485;49.326;9.738;2023-04-07T00:40:34;6.97;;;5.40;;
9240;SDS011;53485;49.326;9.738;2023-04-07T00:43:01;8.77;;;6.17;;
9240;SDS011;53485;49.326;9.738;2023-04-07T00:45:28;8.70;;;5.40;;
9240;SDS011;53485;49.326;9.738;2023-04-07T00:47:55;6.80;;;5.47;;
9240;SDS011;53485;49.326;9.738;2023-04-07T00:50:20;6.83;;;5.27;;
9240;SDS011;53485;49.326;9.738;2023-04-07T00:52:47;7.00;;;5.70;;
9240;SDS011;53485;49.326;9.738;2023-04-07T00:55:14;6.83;;;5.53;;
9240;SDS011;53485;49.326;9.738;2023-04-07T00:57:40;6.47;;;5.37;;
9240;SDS011;53485;49.326;9.738;2023-04-07T01:00:07;10.37;;;5.80;;
9240;SDS011;53485;49.326;9.738;2023-04-07T01:02:36;7.77;;;5.90;;
9240;SDS011;53485;49.326;9.738;2023-04-07T01:05:08;9.20;;;6.70;;
9240;SDS011;53485;49.326;9.738;2023-04-07T01:07:39;11.80;;;5.73;;
9240;SDS011;53485;49.326;9.738;2023-04-07T01:10:03;8.33;;;5.77;;
9240;SDS011;53485;49.326;9.738;2023-04-07T01:12:34;9.60;;;6.00;;
9240;SDS011;53485;49.326;9.738;2023-04-07T01:14:59;9.07;;;5.77;;
9240;SDS011;53485;49.326;9.738;2023-04-07T01:17:24;8.13;;;5.83;;
9240;SDS011;53485;49.326;9.738;2023-04-07T01:19:54;11.07;;;6.37;;
9240;SDS011;53485;49.326;9.738;2023-04-07T01:22:20;11.60;;;7.73;;
9240;SDS011;53485;49.326;9.738;2023-04-07T01:25:12;8.83;;;6.30;;
9240;SDS011;53485;49.326;9.738;2023-04-07T01:27:33;8.67;;;6.00;;
9240;SDS011;53485;49.326;9.738;2023-04-07T01:29:57;9.77;;;6.03;;
9240;SDS011;53485;49.326;9.738;2023-04-07T01:32:23;9.10;;;6.17;;
9240;SDS011;53485;49.326;9.738;2023-04-07T01:34:49;11.33;;;6.50;;
9240;SDS011;53485;49.326;9.738;2023-04-07T01:37:16;9.40;;;6.27;;
9240;SDS011;53485;49.326;9.738;2023-04-07T01:39:42;9.30;;;6.37;;
9240;SDS011;53485;49.326;9.738;2023-04-07T01:42:08;12.03;;;6.97;;
9240;SDS011;53485;49.326;9.738;2023-04-07T01:44:34;9.00;;;6.67;;
9240;SDS011;53485;49.326;9.738;2023-04-07T01:47:01;9.47;;;7.03;;
9240;SDS011;53485;49.326;9.738;2023-04-07T01:49:27;8.77;;;6.77;;
9240;SDS011;53485;49.326;9.738;2023-04-07T01:51:53;10.47;;;6.90;;
9240;SDS011;53485;49.326;9.738;2023-04-07T01:54:20;10.83;;;7.00;;
9240;SDS011;53485;49.326;9.738;2023-04-07T01:56:46;12.47;;;7.97;;
9240;SDS011;53485;49.326;9.738;2023-04-07T01:59:13;10.93;;;7.53;;
9240;SDS011;53485;49.326;9.738;2023-04-07T02:01:39;8.93;;;6.70;;
9240;SDS011;53485;49.326;9.738;2023-04-07T02:06:41;10.87;;;6.47;;
9240;SDS011;53485;49.326;9.738;2023-04-07T02:09:06;12.53;;;7.17;;
9240;SDS011;53485;49.326;9.738;2023-04-07T02:11:30;11.37;;;7.17;;
9240;SDS011;53485;49.326;9.738;2023-04-07T02:13:57;10.73;;;7.10;;
9240;SDS011;53485;49.326;9.738;2023-04-07T02:16:23;11.13;;;6.90;;
9240;SDS011;53485;49.326;9.738;2023-04-07T02:18:49;9.27;;;7.23;;
9240;SDS011;53485;49.326;9.738;2023-04-07T02:21:16;12.60;;;7.10;;
9240;SDS011;53485;49.326;9.738;2023-04-07T02:23:42;11.43;;;6.67;;
9240;SDS011;53485;49.326;9.738;2023-04-07T02:26:09;13.23;;;7.67;;
9240;SDS011;53485;49.326;9.738;2023-04-07T02:28:35;9.90;;;6.57;;
9240;SDS011;53485;49.326;9.738;2023-04-07T02:31:02;10.43;;;7.13;;
9240;SDS011;53485;49.326;9.738;2023-04-07T02:33:28;10.27;;;6.97;;
9240;SDS011;53485;49.326;9.738;2023-04-07T02:35:55;9.47;;;6.07;;
9240;SDS011;53485;49.326;9.738;2023-04-07T02:38:21;11.17;;;7.00;;
9240;SDS011;53485;49.326;9.738;2023-04-07T02:40:48;10.43;;;6.93;;
9240;SDS011;53485;49.326;9.738;2023-04-07T02:43:15;12.37;;;7.10;;
9240;SDS011;53485;49.326;9.738;2023-04-07T02:45:41;11.33;;;7.70;;
9240;SDS011;53485;49.326;9.738;2023-04-07T02:48:07;13.70;;;8.07;;
9240;SDS011;53485;49.326;9.738;2023-04-07T02:50:34;11.63;;;7.83;;
9240;SDS011;53485;49.326;9.738;2023-04-07T02:53:01;12.57;;;8.73;;
9240;SDS011;53485;49.326;9.738;2023-04-07T02:55:27;15.30;;;9.70;;
9240;SDS011;53485;49.326;9.738;2023-04-07T02:57:54;12.77;;;9.20;;
9240;SDS011;53485;49.326;9.738;2023-04-07T03:00:21;14.33;;;9.47;;
9240;SDS011;53485;49.326;9.738;2023-04-07T03:02:47;14.37;;;9.73;;
9240;SDS011;53485;49.326;9.738;2023-04-07T03:05:14;12.77;;;9.00;;
9240;SDS011;53485;49.326;9.738;2023-04-07T03:07:40;16.67;;;10.20;;
9240;SDS011;53485;49.326;9.738;2023-04-07T03:10:07;14.10;;;9.17;;
9240;SDS011;53485;49.326;9.738;2023-04-07T03:12:34;14.60;;;9.23;;
9240;SDS011;53485;49.326;9.738;2023-04-07T03:15:01;12.70;;;8.70;;
9240;SDS011;53485;49.326;9.738;2023-04-07T03:17:27;13.03;;;8.57;;
9240;SDS011;53485;49.326;9.738;2023-04-07T03:19:54;12.47;;;8.93;;
9240;SDS011;53485;49.326;9.738;2023-04-07T03:22:21;13.07;;;8.00;;
9240;SDS011;53485;49.326;9.738;2023-04-07T03:24:47;15.03;;;8.77;;
9240;SDS011;53485;49.326;9.738;2023-04-07T03:27:13;14.47;;;8.73;;
9240;SDS011;53485;49.326;9.738;2023-04-07T03:29:40;11.77;;;8.60;;
9240;SDS011;53485;49.326;9.738;2023-04-07T03:32:06;13.40;;;8.97;;
9240;SDS011;53485;49.326;9.738;2023-04-07T03:34:33;13.63;;;8.47;;
9240;SDS011;53485;49.326;9.738;2023-04-07T03:36:59;11.73;;;8.30;;
9240;SDS011;53485;49.326;9.738;2023-04-07T03:39:26;13.03;;;8.33;;
9240;SDS011;53485;49.326;9.738;2023-04-07T03:41:53;13.87;;;9.40;;
9240;SDS011;53485;49.326;9.738;2023-04-07T03:44:19;13.17;;;9.13;;
9240;SDS011;53485;49.326;9.738;2023-04-07T03:46:46;13.50;;;8.80;;
9240;SDS011;53485;49.326;9.738;2023-04-07T03:49:13;13.17;;;9.13;;
9240;SDS011;53485;49.326;9.738;2023-04-07T03:51:38;12.83;;;8.83;;
9240;SDS011;53485;49.326;9.738;2023-04-07T03:54:05;13.17;;;8.67;;
9240;SDS011;53485;49.326;9.738;2023-04-07T03:56:32;13.83;;;9.20;;
9240;SDS011;53485;49.326;9.738;2023-04-07T03:58:58;16.13;;;9.23;;
9240;SDS011;53485;49.326;9.738;2023-04-07T04:01:25;14.23;;;8.53;;
9240;SDS011;53485;49.326;9.738;2023-04-07T04:03:51;15.30;;;9.43;;
9240;SDS011;53485;49.326;9.738;2023-04-07T04:06:18;13.63;;;9.57;;
9240;SDS011;53485;49.326;9.738;2023-04-07T04:08:45;13.23;;;8.93;;
9240;SDS011;53485;49.326;9.738;2023-04-07T04:11:12;14.73;;;9.47;;
9240;SDS011;53485;49.326;9.738;2023-04-07T04:13:38;15.40;;;9.57;;
9240;SDS011;53485;49.326;9.738;2023-04-07T04:16:05;13.97;;;9.47;;
9240;SDS011;53485;49.326;9.738;2023-04-07T04:18:33;15.60;;;9.93;;
9240;SDS011;53485;49.326;9.738;2023-04-07T04:20:59;15.27;;;9.67;;
9240;SDS011;53485;49.326;9.738;2023-04-07T04:23:26;12.97;;;8.60;;
9240;SDS011;53485;49.326;9.738;2023-04-07T04:25:53;13.77;;;8.67;;
9240;SDS011;53485;49.326;9.738;2023-04-07T04:28:19;15.73;;;10.40;;
9240;SDS011;53485;49.326;9.738;2023-04-07T04:30:45;14.73;;;9.87;;
9240;SDS011;53485;49.326;9.738;2023-04-07T04:33:12;14.57;;;9.50;;
9240;SDS011;53485;49.326;9.738;2023-04-07T04:35:38;17.10;;;10.23;;
9240;SDS011;53485;49.326;9.738;2023-04-07T04:38:05;14.50;;;9.30;;
9240;SDS011;53485;49.326;9.738;2023-04-07T04:40:32;15.27;;;9.47;;
9240;SDS011;53485;49.326;9.738;2023-04-07T04:42:58;15.20;;;10.37;;
9240;SDS011;53485;49.326;9.738;2023-04-07T04:45:25;18.17;;;9.93;;
9240;SDS011;53485;49.326;9.738;2023-04-07T04:47:52;15.30;;;9.93;;
9240;SDS011;53485;49.326;9.738;2023-04-07T04:50:18;15.77;;;10.43;;
9240;SDS011;53485;49.326;9.738;2023-04-07T04:52:45;17.80;;;10.40;;
9240;SDS011;53485;49.326;9.738;2023-04-07T04:55:11;16.43;;;10.43;;
9240;SDS011;53485;49.326;9.738;2023-04-07T04:57:38;16.97;;;10.23;;
9240;SDS011;53485;49.326;9.738;2023-04-07T05:00:05;17.30;;;10.73;;
9240;SDS011;53485;49.326;9.738;2023-04-07T05:02:31;16.63;;;10.63;;
9240;SDS011;53485;49.326;9.738;2023-04-07T05:04:58;20.40;;;10.67;;
9240;SDS011;53485;49.326;9.738;2023-04-07T05:07:24;16.20;;;10.53;;
9240;SDS011;53485;49.326;9.738;2023-04-07T05:09:50;15.83;;;9.83;;
9240;SDS011;53485;49.326;9.738;2023-04-07T05:12:17;18.40;;;10.43;;
9240;SDS011;53485;49.326;9.738;2023-04-07T05:14:44;17.83;;;11.13;;
9240;SDS011;53485;49.326;9.738;2023-04-07T05:17:10;17.53;;;10.70;;
9240;SDS011;53485;49.326;9.738;2023-04-07T05:19:37;17.47;;;11.10;;
9240;SDS011;53485;49.326;9.738;2023-04-07T05:22:03;17.33;;;11.07;;
9240;SDS011;53485;49.326;9.738;2023-04-07T05:24:30;17.40;;;11.10;;
9240;SDS011;53485;49.326;9.738;2023-04-07T05:26:56;21.20;;;10.87;;
9240;SDS011;53485;49.326;9.738;2023-04-07T05:29:23;18.33;;;11.77;;
9240;SDS011;53485;49.326;9.738;2023-04-07T05:31:49;21.23;;;11.07;;
9240;SDS011;53485;49.326;9.738;2023-04-07T05:34:16;23.03;;;11.50;;
9240;SDS011;53485;49.326;9.738;2023-04-07T05:36:42;21.10;;;12.37;;
9240;SDS011;53485;49.326;9.738;2023-04-07T05:39:09;20.27;;;11.93;;
9240;SDS011;53485;49.326;9.738;2023-04-07T05:41:36;17.43;;;11.47;;
9240;SDS011;53485;49.326;9.738;2023-04-07T05:44:02;19.33;;;12.43;;
9240;SDS011;53485;49.326;9.738;2023-04-07T05:46:29;20.17;;;12.00;;
9240;SDS011;53485;49.326;9.738;2023-04-07T05:48:55;20.97;;;13.07;;
9240;SDS011;53485;49.326;9.738;2023-04-07T05:51:22;23.47;;;12.97;;
9240;SDS011;53485;49.326;9.738;2023-04-07T05:53:49;21.23;;;12.90;;
9240;SDS011;53485;49.326;9.738;2023-04-07T05:56:15;22.17;;;12.53;;
9240;SDS011;53485;49.326;9.738;2023-04-07T05:58:42;21.87;;;11.90;;
9240;SDS011;53485;49.326;9.738;2023-04-07T06:01:08;21.53;;;13.13;;
9240;SDS011;53485;49.326;9.738;2023-04-07T06:03:35;20.23;;;12.20;;
9240;SDS011;53485;49.326;9.738;2023-04-07T06:06:02;23.00;;;13.93;;
9240;SDS011;53485;49.326;9.738;2023-04-07T06:08:28;21.27;;;12.23;;
9240;SDS011;53485;49.326;9.738;2023-04-07T06:10:55;20.83;;;12.97;;
9240;SDS011;53485;49.326;9.738;2023-04-07T06:13:22;23.80;;;13.20;;
9240;SDS011;53485;49.326;9.738;2023-04-07T06:15:48;22.40;;;12.63;;
9240;SDS011;53485;49.326;9.738;2023-04-07T06:18:15;21.93;;;12.17;;
9240;SDS011;53485;49.326;9.738;2023-04-07T06:20:41;21.50;;;13.80;;
9240;SDS011;53485;49.326;9.738;2023-04-07T06:23:08;26.20;;;13.97;;
9240;SDS011;53485;49.326;9.738;2023-04-07T06:25:35;25.60;;;13.87;;
9240;SDS011;53485;49.326;9.738;2023-04-07T06:28:01;31.57;;;14.67;;
9240;SDS011;53485;49.326;9.738;2023-04-07T06:30:28;23.97;;;14.60;;
9240;SDS011;53485;49.326;9.738;2023-04-07T06:32:54;23.23;;;13.77;;
9240;SDS011;53485;49.326;9.738;2023-04-07T06:35:21;20.60;;;12.90;;
9240;SDS011;53485;49.326;9.738;2023-04-07T06:37:47;24.10;;;13.40;;
9240;SDS011;53485;49.326;9.738;2023-04-07T06:40:14;25.33;;;14.27;;
9240;SDS011;53485;49.326;9.738;2023-04-07T06:42:41;28.27;;;14.23;;
9240;SDS011;53485;49.326;9.738;2023-04-07T06:45:08;23.57;;;13.23;;
9240;SDS011;53485;49.326;9.738;2023-04-07T06:47:35;23.67;;;14.37;;
9240;SDS011;53485;49.326;9.738;2023-04-07T06:50:01;26.80;;;14.03;;
9240;SDS011;53485;49.326;9.738;2023-04-07T06:52:28;23.13;;;14.37;;
9240;SDS011;53485;49.326;9.738;2023-04-07T06:54:54;28.27;;;15.30;;
9240;SDS011;53485;49.326;9.738;2023-04-07T06:57:21;25.30;;;14.73;;
9240;SDS011;53485;49.326;9.738;2023-04-07T06:59:47;25.73;;;14.77;;
9240;SDS011;53485;49.326;9.738;2023-04-07T07:02:14;26.30;;;14.23;;
9240;SDS011;53485;49.326;9.738;2023-04-07T07:04:40;23.83;;;14.53;;
9240;SDS011;53485;49.326;9.738;2023-04-07T07:07:07;25.50;;;15.13;;
9240;SDS011;53485;49.326;9.738;2023-04-07T07:09:34;29.50;;;15.93;;
9240;SDS011;53485;49.326;9.738;2023-04-07T07:12:00;26.13;;;14.43;;
9240;SDS011;53485;49.326;9.738;2023-04-07T07:14:27;24.40;;;15.20;;
9240;SDS011;53485;49.326;9.738;2023-04-07T07:16:53;24.00;;;14.57;;
9240;SDS011;53485;49.326;9.738;2023-04-07T07:19:20;23.57;;;14.47;;
9240;SDS011;53485;49.326;9.738;2023-04-07T07:21:47;20.60;;;13.57;;
9240;SDS011;53485;49.326;9.738;2023-04-07T07:24:13;26.40;;;15.33;;
9240;SDS011;53485;49.326;9.738;2023-04-07T07:26:40;22.07;;;13.87;;
9240;SDS011;53485;49.326;9.738;2023-04-07T07:29:07;20.57;;;13.27;;
9240;SDS011;53485;49.326;9.738;2023-04-07T07:31:33;22.97;;;14.03;;
9240;SDS011;53485;49.326;9.738;2023-04-07T07:34:00;24.63;;;14.70;;
9240;SDS011;53485;49.326;9.738;2023-04-07T07:36:26;23.13;;;13.87;;
9240;SDS011;53485;49.326;9.738;2023-04-07T07:38:53;21.50;;;12.80;;
9240;SDS011;53485;49.326;9.738;2023-04-07T07:41:20;20.93;;;13.33;;
9240;SDS011;53485;49.326;9.738;2023-04-07T07:43:46;19.57;;;12.77;;
9240;SDS011;53485;49.326;9.738;2023-04-07T07:46:13;24.60;;;14.80;;
9240;SDS011;53485;49.326;9.738;2023-04-07T07:48:39;21.20;;;13.03;;
9240;SDS011;53485;49.326;9.738;2023-04-07T07:51:06;21.17;;;13.67;;
9240;SDS011;53485;49.326;9.738;2023-04-07T07:53:33;20.53;;;13.23;;
9240;SDS011;53485;49.326;9.738;2023-04-07T07:55:59;19.33;;;12.90;;
9240;SDS011;53485;49.326;9.738;2023-04-07T07:58:26;21.43;;;14.37;;
9240;SDS011;53485;49.326;9.738;2023-04-07T08:00:52;24.70;;;16.90;;
9240;SDS011;53485;49.326;9.738;2023-04-07T08:03:19;22.93;;;14.57;;
9240;SDS011;53485;49.326;9.738;2023-04-07T08:05:46;18.40;;;13.47;;
9240;SDS011;53485;49.326;9.738;2023-04-07T08:08:12;17.83;;;12.77;;
9240;SDS011;53485;49.326;9.738;2023-04-07T08:10:38;20.37;;;13.27;;
9240;SDS011;53485;49.326;9.738;2023-04-07T08:13:05;21.27;;;12.63;;
9240;SDS011;53485;49.326;9.738;2023-04-07T08:15:31;17.43;;;12.47;;
9240;SDS011;53485;49.326;9.738;2023-04-07T08:17:58;18.23;;;11.50;;
9240;SDS011;53485;49.326;9.738;2023-04-07T08:20:25;17.93;;;11.73;;
9240;SDS011;53485;49.326;9.738;2023-04-07T08:22:50;15.53;;;11.30;;
9240;SDS011;53485;49.326;9.738;2023-04-07T08:25:17;16.10;;;11.30;;
9240;SDS011;53485;49.326;9.738;2023-04-07T08:27:43;20.07;;;12.00;;
9240;SDS011;53485;49.326;9.738;2023-04-07T08:30:10;15.90;;;12.27;;
9240;SDS011;53485;49.326;9.738;2023-04-07T08:32:38;14.53;;;10.63;;
9240;SDS011;53485;49.326;9.738;2023-04-07T08:35:03;14.80;;;10.57;;
9240;SDS011;53485;49.326;9.738;2023-04-07T08:37:30;12.97;;;10.30;;
9240;SDS011;53485;49.326;9.738;2023-04-07T08:39:55;14.07;;;10.43;;
9240;SDS011;53485;49.326;9.738;2023-04-07T08:42:22;12.73;;;10.20;;
9240;SDS011;53485;49.326;9.738;2023-04-07T08:44:48;14.77;;;9.87;;
9240;SDS011;53485;49.326;9.738;2023-04-07T08:47:14;14.50;;;10.27;;
9240;SDS011;53485;49.326;9.738;2023-04-07T08:49:41;13.63;;;10.20;;
9240;SDS011;53485;49.326;9.738;2023-04-07T08:52:07;12.97;;;9.53;;
9240;SDS011;53485;49.326;9.738;2023-04-07T08:54:33;12.20;;;9.23;;
9240;SDS011;53485;49.326;9.738;2023-04-07T08:57:00;14.73;;;11.33;;
9240;SDS011;53485;49.326;9.738;2023-04-07T08:59:26;12.23;;;9.73;;
9240;SDS011;53485;49.326;9.738;2023-04-07T09:01:52;12.97;;;10.20;;
9240;SDS011;53485;49.326;9.738;2023-04-07T09:04:18;12.83;;;9.53;;
9240;SDS011;53485;49.326;9.738;2023-04-07T09:06:45;13.27;;;9.27;;
9240;SDS011;53485;49.326;9.738;2023-04-07T09:09:11;10.13;;;8.23;;
9240;SDS011;53485;49.326;9.738;2023-04-07T09:11:38;13.23;;;9.60;;
9240;SDS011;53485;49.326;9.738;2023-04-07T09:14:04;12.13;;;9.00;;
9240;SDS011;53485;49.326;9.738;2023-04-07T09:16:31;11.83;;;8.77;;
9240;SDS011;53485;49.326;9.738;2023-04-07T09:18:57;12.60;;;8.90;;
9240;SDS011;53485;49.326;9.738;2023-04-07T09:21:23;9.63;;;7.97;;
9240;SDS011;53485;49.326;9.738;2023-04-07T09:23:49;15.87;;;9.90;;
9240;SDS011;53485;49.326;9.738;2023-04-07T09:26:23;11.93;;;8.30;;
9240;SDS011;53485;49.326;9.738;2023-04-07T09:28:53;9.43;;;7.30;;
9240;SDS011;53485;49.326;9.738;2023-04-07T09:31:18;12.27;;;8.70;;
9240;SDS011;53485;49.326;9.738;2023-04-07T09:33:44;9.43;;;7.43;;
9240;SDS011;53485;49.326;9.738;2023-04-07T09:36:11;8.17;;;7.37;;
9240;SDS011;53485;49.326;9.738;2023-04-07T09:38:38;8.93;;;6.90;;
9240;SDS011;53485;49.326;9.738;2023-04-07T09:41:05;12.47;;;9.70;;
9240;SDS011;53485;49.326;9.738;2023-04-07T09:43:30;14.03;;;10.87;;
9240;SDS011;53485;49.326;9.738;2023-04-07T09:48:29;9.50;;;8.33;;
9240;SDS011;53485;49.326;9.738;2023-04-07T09:51:04;10.37;;;7.87;;
9240;SDS011;53485;49.326;9.738;2023-04-07T09:53:30;9.60;;;8.13;;
9240;SDS011;53485;49.326;9.738;2023-04-07T09:55:48;9.47;;;8.47;;
9240;SDS011;53485;49.326;9.738;2023-04-07T09:58:14;11.40;;;8.77;;
9240;SDS011;53485;49.326;9.738;2023-04-07T10:00:41;9.67;;;8.20;;
9240;SDS011;53485;49.326;9.738;2023-04-07T10:03:07;11.27;;;8.37;;
9240;SDS011;53485;49.326;9.738;2023-04-07T10:05:33;9.17;;;7.90;;
9240;SDS011;53485;49.326;9.738;2023-04-07T10:08:03;12.23;;;8.83;;
9240;SDS011;53485;49.326;9.738;2023-04-07T10:10:28;13.30;;;9.10;;
9240;SDS011;53485;49.326;9.738;2023-04-07T10:12:55;12.67;;;9.83;;
9240;SDS011;53485;49.326;9.738;2023-04-07T10:15:21;12.17;;;9.03;;
9240;SDS011;53485;49.326;9.738;2023-04-07T10:17:47;14.00;;;11.03;;
9240;SDS011;53485;49.326;9.738;2023-04-07T10:20:14;11.47;;;9.67;;
9240;SDS011;53485;49.326;9.738;2023-04-07T10:22:40;9.77;;;8.17;;
9240;SDS011;53485;49.326;9.738;2023-04-07T10:25:06;8.93;;;7.90;;
9240;SDS011;53485;49.326;9.738;2023-04-07T10:27:34;10.80;;;8.33;;
9240;SDS011;53485;49.326;9.738;2023-04-07T10:29:59;11.97;;;8.43;;
9240;SDS011;53485;49.326;9.738;2023-04-07T10:32:25;12.47;;;8.57;;
9240;SDS011;53485;49.326;9.738;2023-04-07T10:34:54;9.77;;;8.77;;
9240;SDS011;53485;49.326;9.738;2023-04-07T10:37:21;8.87;;;7.57;;
9240;SDS011;53485;49.326;9.738;2023-04-07T10:39:47;12.83;;;8.73;;
9240;SDS011;53485;49.326;9.738;2023-04-07T10:44:45;11.30;;;6.93;;
9240;SDS011;53485;49.326;9.738;2023-04-07T10:47:11;13.10;;;7.87;;
9240;SDS011;53485;49.326;9.738;2023-04-07T10:49:37;10.70;;;8.03;;
9240;SDS011;53485;49.326;9.738;2023-04-07T10:54:36;11.20;;;8.17;;
9240;SDS011;53485;49.326;9.738;2023-04-07T10:57:03;12.00;;;8.70;;
9240;SDS011;53485;49.326;9.738;2023-04-07T10:59:29;9.87;;;8.87;;
9240;SDS011;53485;49.326;9.738;2023-04-07T11:04:35;11.60;;;9.80;;
9240;SDS011;53485;49.326;9.738;2023-04-07T11:06:54;13.03;;;9.77;;
9240;SDS011;53485;49.326;9.738;2023-04-07T11:09:20;10.23;;;8.90;;
9240;SDS011;53485;49.326;9.738;2023-04-07T11:11:46;10.97;;;9.20;;
9240;SDS011;53485;49.326;9.738;2023-04-07T11:14:23;12.40;;;9.27;;
9240;SDS011;53485;49.326;9.738;2023-04-07T11:16:40;11.47;;;9.03;;
9240;SDS011;53485;49.326;9.738;2023-04-07T11:19:05;11.07;;;8.63;;
9240;SDS011;53485;49.326;9.738;2023-04-07T11:21:31;12.60;;;9.17;;
9240;SDS011;53485;49.326;9.738;2023-04-07T11:23:58;9.70;;;8.23;;
9240;SDS011;53485;49.326;9.738;2023-04-07T11:26:24;12.13;;;9.00;;
9240;SDS011;53485;49.326;9.738;2023-04-07T11:28:52;9.60;;;8.23;;
9240;SDS011;53485;49.326;9.738;2023-04-07T11:31:27;9.83;;;7.83;;
9240;SDS011;53485;49.326;9.738;2023-04-07T11:33:54;9.63;;;7.50;;
9240;SDS011;53485;49.326;9.738;2023-04-07T11:36:28;10.83;;;7.67;;
9240;SDS011;53485;49.326;9.738;2023-04-07T11:38:54;12.07;;;8.47;;
9240;SDS011;53485;49.326;9.738;2023-04-07T11:41:20;7.70;;;6.67;;
9240;SDS011;53485;49.326;9.738;2023-04-07T11:43:47;10.17;;;6.77;;
9240;SDS011;53485;49.326;9.738;2023-04-07T11:46:14;10.67;;;7.47;;
9240;SDS011;53485;49.326;9.738;2023-04-07T11:48:40;10.37;;;7.73;;
9240;SDS011;53485;49.326;9.738;2023-04-07T11:51:05;7.43;;;6.70;;
9240;SDS011;53485;49.326;9.738;2023-04-07T11:53:32;8.20;;;6.33;;
9240;SDS011;53485;49.326;9.738;2023-04-07T11:56:06;10.53;;;6.03;;
9240;SDS011;53485;49.326;9.738;2023-04-07T11:58:32;6.93;;;6.33;;
9240;SDS011;53485;49.326;9.738;2023-04-07T12:01:00;10.47;;;5.80;;
9240;SDS011;53485;49.326;9.738;2023-04-07T12:03:25;6.73;;;5.73;;
9240;SDS011;53485;49.326;9.738;2023-04-07T12:05:52;6.57;;;5.93;;
9240;SDS011;53485;49.326;9.738;2023-04-07T12:08:18;6.37;;;5.30;;
9240;SDS011;53485;49.326;9.738;2023-04-07T12:10:45;5.50;;;5.00;;
9240;SDS011;53485;49.326;9.738;2023-04-07T12:13:12;6.50;;;5.90;;
9240;SDS011;53485;49.326;9.738;2023-04-07T12:15:37;5.53;;;4.93;;
9240;SDS011;53485;49.326;9.738;2023-04-07T12:18:04;5.70;;;5.17;;
9240;SDS011;53485;49.326;9.738;2023-04-07T12:20:31;5.80;;;5.30;;
9240;SDS011;53485;49.326;9.738;2023-04-07T12:22:57;6.30;;;4.83;;
9240;SDS011;53485;49.326;9.738;2023-04-07T12:25:24;5.37;;;4.27;;
9240;SDS011;53485;49.326;9.738;2023-04-07T12:27:50;8.40;;;5.00;;
9240;SDS011;53485;49.326;9.738;2023-04-07T12:30:17;5.33;;;4.73;;
9240;SDS011;53485;49.326;9.738;2023-04-07T12:32:43;5.43;;;4.70;;
9240;SDS011;53485;49.326;9.738;2023-04-07T12:35:10;5.13;;;4.60;;
9240;SDS011;53485;49.326;9.738;2023-04-07T12:37:36;5.70;;;4.80;;
9240;SDS011;53485;49.326;9.738;2023-04-07T12:40:03;5.07;;;4.50;;
9240;SDS011;53485;49.326;9.738;2023-04-07T12:42:30;5.13;;;4.73;;
9240;SDS011;53485;49.326;9.738;2023-04-07T12:44:56;3.97;;;3.67;;
9240;SDS011;53485;49.326;9.738;2023-04-07T12:47:23;6.53;;;4.00;;
9240;SDS011;53485;49.326;9.738;2023-04-07T12:49:50;3.73;;;3.47;;
9240;SDS011;53485;49.326;9.738;2023-04-07T12:52:16;4.67;;;4.03;;
9240;SDS011;53485;49.326;9.738;2023-04-07T12:54:43;5.53;;;3.80;;
9240;SDS011;53485;49.326;9.738;2023-04-07T12:57:10;3.90;;;3.50;;
9240;SDS011;53485;49.326;9.738;2023-04-07T12:59:36;4.97;;;3.23;;
9240;SDS011;53485;49.326;9.738;2023-04-07T13:02:02;8.87;;;6.17;;
9240;SDS011;53485;49.326;9.738;2023-04-07T13:04:29;4.23;;;3.90;;
9240;SDS011;53485;49.326;9.738;2023-04-07T13:06:55;5.03;;;3.77;;
9240;SDS011;53485;49.326;9.738;2023-04-07T13:09:23;3.67;;;2.80;;
9240;SDS011;53485;49.326;9.738;2023-04-07T13:11:48;3.03;;;2.70;;
9240;SDS011;53485;49.326;9.738;2023-04-07T13:14:15;2.40;;;2.20;;
9240;SDS011;53485;49.326;9.738;2023-04-07T13:16:42;3.27;;;2.23;;
9240;SDS011;53485;49.326;9.738;2023-04-07T13:19:08;3.77;;;2.43;;
9240;SDS011;53485;49.326;9.738;2023-04-07T13:21:35;3.93;;;2.03;;
9240;SDS011;53485;49.326;9.738;2023-04-07T13:24:01;4.77;;;2.07;;
9240;SDS011;53485;49.326;9.738;2023-04-07T13:26:28;3.03;;;1.50;;
9240;SDS011;53485;49.326;9.738;2023-04-07T13:28:55;2.37;;;2.00;;
9240;SDS011;53485;49.326;9.738;2023-04-07T13:31:21;3.80;;;2.20;;
9240;SDS011;53485;49.326;9.738;2023-04-07T13:33:47;1.97;;;1.80;;
9240;SDS011;53485;49.326;9.738;2023-04-07T13:36:13;4.63;;;2.47;;
9240;SDS011;53485;49.326;9.738;2023-04-07T13:38:40;2.83;;;2.53;;
9240;SDS011;53485;49.326;9.738;2023-04-07T13:41:06;3.33;;;2.13;;
9240;SDS011;53485;49.326;9.738;2023-04-07T13:43:33;4.27;;;3.73;;
9240;SDS011;53485;49.326;9.738;2023-04-07T13:45:59;3.70;;;1.97;;
9240;SDS011;53485;49.326;9.738;2023-04-07T13:48:26;71.60;;;49.03;;
9240;SDS011;53485;49.326;9.738;2023-04-07T13:50:53;4.87;;;3.80;;
9240;SDS011;53485;49.326;9.738;2023-04-07T13:53:19;5.60;;;3.50;;
9240;SDS011;53485;49.326;9.738;2023-04-07T13:55:46;3.63;;;3.03;;
9240;SDS011;53485;49.326;9.738;2023-04-07T13:58:12;4.63;;;2.40;;
9240;SDS011;53485;49.326;9.738;2023-04-07T14:00:39;3.20;;;2.90;;
9240;SDS011;53485;49.326;9.738;2023-04-07T14:03:05;3.70;;;2.33;;
9240;SDS011;53485;49.326;9.738;2023-04-07T14:05:32;7.83;;;2.90;;
9240;SDS011;53485;49.326;9.738;2023-04-07T14:07:58;4.13;;;2.20;;
9240;SDS011;53485;49.326;9.738;2023-04-07T14:10:25;4.40;;;2.57;;
9240;SDS011;53485;49.326;9.738;2023-04-07T14:12:51;3.27;;;2.93;;
9240;SDS011;53485;49.326;9.738;2023-04-07T14:15:18;3.27;;;2.33;;
9240;SDS011;53485;49.326;9.738;2023-04-07T14:17:44;2.63;;;2.37;;
9240;SDS011;53485;49.326;9.738;2023-04-07T14:20:11;2.87;;;2.27;;
9240;SDS011;53485;49.326;9.738;2023-04-07T14:22:38;3.53;;;2.50;;
9240;SDS011;53485;49.326;9.738;2023-04-07T14:25:04;2.83;;;1.93;;
9240;SDS011;53485;49.326;9.738;2023-04-07T14:27:31;3.37;;;2.00;;
9240;SDS011;53485;49.326;9.738;2023-04-07T14:29:58;3.03;;;1.97;;
9240;SDS011;53485;49.326;9.738;2023-04-07T14:32:25;2.33;;;1.73;;
9240;SDS011;53485;49.326;9.738;2023-04-07T14:34:50;2.37;;;1.50;;
9240;SDS011;53485;49.326;9.738;2023-04-07T14:37:17;2.27;;;1.80;;
9240;SDS011;53485;49.326;9.738;2023-04-07T14:39:43;4.47;;;2.27;;
9240;SDS011;53485;49.326;9.738;2023-04-07T14:42:10;2.67;;;2.40;;
9240;SDS011;53485;49.326;9.738;2023-04-07T14:44:36;3.50;;;2.67;;
9240;SDS011;53485;49.326;9.738;2023-04-07T14:47:03;3.70;;;2.63;;
9240;SDS011;53485;49.326;9.738;2023-04-07T14:49:29;4.50;;;2.80;;
9240;SDS011;53485;49.326;9.738;2023-04-07T14:51:56;2.67;;;1.63;;
9240;SDS011;53485;49.326;9.738;2023-04-07T14:54:23;2.43;;;1.90;;
9240;SDS011;53485;49.326;9.738;2023-04-07T14:56:49;2.33;;;1.30;;